Terminal Aerodrome Forecast
Issued by NWS Amarillo, TX

Home | Current Version | Previous Version | Text Only | Print | Product List | Glossary On
Versions: 1 2 3 4 5 6 7 8 9 10 11 12 13 14 15 16 17 18
000
FTUS44 KAMA 262100 AAB
TAFGUY
TAF AMD
KGUY 262115Z 2621/2718 05012G21KT P6SM BKN008
     FM270200 02020G30KT P6SM +SHRA OVC008=

USA.gov is the U.S. government's official web portal to all federal, state and local government web resources and services.